sensor_id;sensor_type;location;lat;lon;timestamp;temperature;humidity
74087;SHT30;62445;48.406;-4.518;2023-07-02T00:01:08;25.13;55.38
74087;SHT30;62445;48.406;-4.518;2023-07-02T00:03:34;25.14;55.38
74087;SHT30;62445;48.406;-4.518;2023-07-02T00:05:59;25.14;55.37
74087;SHT30;62445;48.406;-4.518;2023-07-02T00:08:25;25.11;55.43
74087;SHT30;62445;48.406;-4.518;2023-07-02T00:10:50;25.10;55.42
74087;SHT30;62445;48.406;-4.518;2023-07-02T00:13:15;25.13;55.43
74087;SHT30;62445;48.406;-4.518;2023-07-02T00:15:41;25.11;55.40
74087;SHT30;62445;48.406;-4.518;2023-07-02T00:18:07;25.08;55.38
74087;SHT30;62445;48.406;-4.518;2023-07-02T00:20:33;25.11;55.41
74087;SHT30;62445;48.406;-4.518;2023-07-02T00:23:03;25.08;55.39
74087;SHT30;62445;48.406;-4.518;2023-07-02T00:25:29;25.10;55.44
74087;SHT30;62445;48.406;-4.518;2023-07-02T00:27:54;25.07;55.46
74087;SHT30;62445;48.406;-4.518;2023-07-02T00:30:20;25.04;55.44
74087;SHT30;62445;48.406;-4.518;2023-07-02T00:32:45;25.06;55.44
74087;SHT30;62445;48.406;-4.518;2023-07-02T00:35:11;25.06;55.44
74087;SHT30;62445;48.406;-4.518;2023-07-02T00:37:36;25.07;55.43
74087;SHT30;62445;48.406;-4.518;2023-07-02T00:40:02;25.04;55.43
74087;SHT30;62445;48.406;-4.518;2023-07-02T00:42:28;25.04;55.41
74087;SHT30;62445;48.406;-4.518;2023-07-02T00:44:55;25.06;55.44
74087;SHT30;62445;48.406;-4.518;2023-07-02T00:47:23;25.04;55.43
74087;SHT30;62445;48.406;-4.518;2023-07-02T00:49:49;25.03;55.35
74087;SHT30;62445;48.406;-4.518;2023-07-02T00:52:14;25.03;55.43
74087;SHT30;62445;48.406;-4.518;2023-07-02T00:54:40;25.07;55.36
74087;SHT30;62445;48.406;-4.518;2023-07-02T00:57:06;25.02;55.37
74087;SHT30;62445;48.406;-4.518;2023-07-02T00:59:32;25.03;55.39
74087;SHT30;62445;48.406;-4.518;2023-07-02T01:02:02;25.00;55.39
74087;SHT30;62445;48.406;-4.518;2023-07-02T01:04:28;25.02;55.40
74087;SHT30;62445;48.406;-4.518;2023-07-02T01:06:53;25.02;55.40
74087;SHT30;62445;48.406;-4.518;2023-07-02T01:09:25;25.00;55.34
74087;SHT30;62445;48.406;-4.518;2023-07-02T01:12:00;25.00;55.31
74087;SHT30;62445;48.406;-4.518;2023-07-02T01:14:31;25.02;55.32
74087;SHT30;62445;48.406;-4.518;2023-07-02T01:16:59;24.98;55.38
74087;SHT30;62445;48.406;-4.518;2023-07-02T01:22:06;24.94;55.35
74087;SHT30;62445;48.406;-4.518;2023-07-02T01:24:32;24.95;55.33
74087;SHT30;62445;48.406;-4.518;2023-07-02T01:26:57;24.94;55.36
74087;SHT30;62445;48.406;-4.518;2023-07-02T01:29:28;24.98;55.35
74087;SHT30;62445;48.406;-4.518;2023-07-02T01:31:54;24.93;55.33
74087;SHT30;62445;48.406;-4.518;2023-07-02T01:34:19;24.95;55.27
74087;SHT30;62445;48.406;-4.518;2023-07-02T01:36:45;24.97;55.28
74087;SHT30;62445;48.406;-4.518;2023-07-02T01:39:10;24.94;55.34
74087;SHT30;62445;48.406;-4.518;2023-07-02T01:41:45;24.95;55.26
74087;SHT30;62445;48.406;-4.518;2023-07-02T01:44:10;24.91;55.37
74087;SHT30;62445;48.406;-4.518;2023-07-02T01:46:36;24.95;55.34
74087;SHT30;62445;48.406;-4.518;2023-07-02T01:49:01;24.94;55.37
74087;SHT30;62445;48.406;-4.518;2023-07-02T01:51:27;24.94;55.36
74087;SHT30;62445;48.406;-4.518;2023-07-02T01:53:52;24.90;55.34
74087;SHT30;62445;48.406;-4.518;2023-07-02T01:56:18;24.93;55.29
74087;SHT30;62445;48.406;-4.518;2023-07-02T01:58:43;24.91;55.33
74087;SHT30;62445;48.406;-4.518;2023-07-02T02:01:08;24.93;55.30
74087;SHT30;62445;48.406;-4.518;2023-07-02T02:03:34;24.90;55.33
74087;SHT30;62445;48.406;-4.518;2023-07-02T02:05:59;24.90;55.30
74087;SHT30;62445;48.406;-4.518;2023-07-02T02:08:24;24.91;55.26
74087;SHT30;62445;48.406;-4.518;2023-07-02T02:10:50;24.93;55.30
74087;SHT30;62445;48.406;-4.518;2023-07-02T02:13:15;24.88;55.27
74087;SHT30;62445;48.406;-4.518;2023-07-02T02:15:41;24.91;55.27
74087;SHT30;62445;48.406;-4.518;2023-07-02T02:18:06;24.87;55.24
74087;SHT30;62445;48.406;-4.518;2023-07-02T02:20:32;24.88;55.33
74087;SHT30;62445;48.406;-4.518;2023-07-02T02:22:58;24.86;55.29
74087;SHT30;62445;48.406;-4.518;2023-07-02T02:25:23;24.87;55.29
74087;SHT30;62445;48.406;-4.518;2023-07-02T02:27:49;24.87;55.27
74087;SHT30;62445;48.406;-4.518;2023-07-02T02:30:14;24.88;55.31
74087;SHT30;62445;48.406;-4.518;2023-07-02T02:32:40;24.88;55.31
74087;SHT30;62445;48.406;-4.518;2023-07-02T02:35:06;24.87;55.41
74087;SHT30;62445;48.406;-4.518;2023-07-02T02:37:33;24.87;55.29
74087;SHT30;62445;48.406;-4.518;2023-07-02T02:39:59;24.86;55.30
74087;SHT30;62445;48.406;-4.518;2023-07-02T02:42:25;24.86;55.22
74087;SHT30;62445;48.406;-4.518;2023-07-02T02:44:50;24.84;55.27
74087;SHT30;62445;48.406;-4.518;2023-07-02T02:47:16;24.83;55.28
74087;SHT30;62445;48.406;-4.518;2023-07-02T02:49:41;24.84;55.20
74087;SHT30;62445;48.406;-4.518;2023-07-02T02:52:06;24.84;55.24
74087;SHT30;62445;48.406;-4.518;2023-07-02T02:54:32;24.83;55.17
74087;SHT30;62445;48.406;-4.518;2023-07-02T02:56:57;24.84;55.17
74087;SHT30;62445;48.406;-4.518;2023-07-02T02:59:23;24.84;55.02
74087;SHT30;62445;48.406;-4.518;2023-07-02T03:01:48;24.84;55.02
74087;SHT30;62445;48.406;-4.518;2023-07-02T03:04:14;24.82;55.06
74087;SHT30;62445;48.406;-4.518;2023-07-02T03:06:39;24.80;54.99
74087;SHT30;62445;48.406;-4.518;2023-07-02T03:09:05;24.83;54.98
74087;SHT30;62445;48.406;-4.518;2023-07-02T03:11:30;24.80;54.93
74087;SHT30;62445;48.406;-4.518;2023-07-02T03:13:55;24.79;54.92
74087;SHT30;62445;48.406;-4.518;2023-07-02T03:16:21;24.80;54.88
74087;SHT30;62445;48.406;-4.518;2023-07-02T03:18:46;24.77;54.85
74087;SHT30;62445;48.406;-4.518;2023-07-02T03:21:12;24.79;54.81
74087;SHT30;62445;48.406;-4.518;2023-07-02T03:23:37;24.76;54.76
74087;SHT30;62445;48.406;-4.518;2023-07-02T03:26:03;24.79;54.74
74087;SHT30;62445;48.406;-4.518;2023-07-02T03:28:28;24.77;54.65
74087;SHT30;62445;48.406;-4.518;2023-07-02T03:30:54;24.76;54.66
74087;SHT30;62445;48.406;-4.518;2023-07-02T03:33:19;24.77;54.70
74087;SHT30;62445;48.406;-4.518;2023-07-02T03:35:44;24.75;54.61
74087;SHT30;62445;48.406;-4.518;2023-07-02T03:38:10;24.76;54.62
74087;SHT30;62445;48.406;-4.518;2023-07-02T03:40:35;24.75;54.60
74087;SHT30;62445;48.406;-4.518;2023-07-02T03:43:01;24.73;54.61
74087;SHT30;62445;48.406;-4.518;2023-07-02T03:45:26;24.73;54.61
74087;SHT30;62445;48.406;-4.518;2023-07-02T03:47:52;24.75;54.45
74087;SHT30;62445;48.406;-4.518;2023-07-02T03:50:17;24.73;54.51
74087;SHT30;62445;48.406;-4.518;2023-07-02T03:52:43;24.73;54.49
74087;SHT30;62445;48.406;-4.518;2023-07-02T03:55:08;24.73;54.45
74087;SHT30;62445;48.406;-4.518;2023-07-02T03:57:34;24.73;54.42
74087;SHT30;62445;48.406;-4.518;2023-07-02T03:59:59;24.73;54.40
74087;SHT30;62445;48.406;-4.518;2023-07-02T04:02:24;24.72;54.37
74087;SHT30;62445;48.406;-4.518;2023-07-02T04:04:50;24.70;54.33
74087;SHT30;62445;48.406;-4.518;2023-07-02T04:07:15;24.72;54.28
74087;SHT30;62445;48.406;-4.518;2023-07-02T04:09:41;24.70;54.31
74087;SHT30;62445;48.406;-4.518;2023-07-02T04:12:07;24.70;54.30
74087;SHT30;62445;48.406;-4.518;2023-07-02T04:14:32;24.70;54.35
74087;SHT30;62445;48.406;-4.518;2023-07-02T04:16:58;24.67;54.27
74087;SHT30;62445;48.406;-4.518;2023-07-02T04:19:23;24.69;54.29
74087;SHT30;62445;48.406;-4.518;2023-07-02T04:21:48;24.67;54.28
74087;SHT30;62445;48.406;-4.518;2023-07-02T04:24:14;24.69;54.21
74087;SHT30;62445;48.406;-4.518;2023-07-02T04:26:39;24.69;54.28
74087;SHT30;62445;48.406;-4.518;2023-07-02T04:29:09;24.69;54.18
74087;SHT30;62445;48.406;-4.518;2023-07-02T04:31:34;24.69;54.19
74087;SHT30;62445;48.406;-4.518;2023-07-02T04:33:59;24.67;54.20
74087;SHT30;62445;48.406;-4.518;2023-07-02T04:36:25;24.66;54.18
74087;SHT30;62445;48.406;-4.518;2023-07-02T04:38:51;24.66;54.16
74087;SHT30;62445;48.406;-4.518;2023-07-02T04:41:17;24.65;54.19
74087;SHT30;62445;48.406;-4.518;2023-07-02T04:43:43;24.66;54.19
74087;SHT30;62445;48.406;-4.518;2023-07-02T04:46:10;24.66;54.18
74087;SHT30;62445;48.406;-4.518;2023-07-02T04:48:37;24.66;54.15
74087;SHT30;62445;48.406;-4.518;2023-07-02T04:51:03;24.65;54.15
74087;SHT30;62445;48.406;-4.518;2023-07-02T04:53:28;24.67;54.11
74087;SHT30;62445;48.406;-4.518;2023-07-02T04:55:54;24.65;54.11
74087;SHT30;62445;48.406;-4.518;2023-07-02T04:58:20;24.65;54.09
74087;SHT30;62445;48.406;-4.518;2023-07-02T05:00:45;24.62;54.07
74087;SHT30;62445;48.406;-4.518;2023-07-02T05:03:10;24.66;54.12
74087;SHT30;62445;48.406;-4.518;2023-07-02T05:05:36;24.62;54.10
74087;SHT30;62445;48.406;-4.518;2023-07-02T05:08:01;24.63;54.15
74087;SHT30;62445;48.406;-4.518;2023-07-02T05:10:27;24.65;54.17
74087;SHT30;62445;48.406;-4.518;2023-07-02T05:12:52;24.62;54.13
74087;SHT30;62445;48.406;-4.518;2023-07-02T05:15:18;24.63;54.13
74087;SHT30;62445;48.406;-4.518;2023-07-02T05:17:43;24.62;54.09
74087;SHT30;62445;48.406;-4.518;2023-07-02T05:20:09;24.59;54.16
74087;SHT30;62445;48.406;-4.518;2023-07-02T05:22:34;24.60;54.14
74087;SHT30;62445;48.406;-4.518;2023-07-02T05:25:00;24.60;54.08
74087;SHT30;62445;48.406;-4.518;2023-07-02T05:27:25;24.60;54.10
74087;SHT30;62445;48.406;-4.518;2023-07-02T05:29:51;24.60;54.12
74087;SHT30;62445;48.406;-4.518;2023-07-02T05:32:16;24.60;54.16
74087;SHT30;62445;48.406;-4.518;2023-07-02T05:34:41;24.59;54.12
74087;SHT30;62445;48.406;-4.518;2023-07-02T05:37:07;24.57;54.14
74087;SHT30;62445;48.406;-4.518;2023-07-02T05:39:34;24.60;54.08
74087;SHT30;62445;48.406;-4.518;2023-07-02T05:41:59;24.59;54.11
74087;SHT30;62445;48.406;-4.518;2023-07-02T05:44:24;24.57;54.15
74087;SHT30;62445;48.406;-4.518;2023-07-02T05:46:50;24.57;54.11
74087;SHT30;62445;48.406;-4.518;2023-07-02T05:49:15;24.56;54.12
74087;SHT30;62445;48.406;-4.518;2023-07-02T05:51:41;24.57;54.16
74087;SHT30;62445;48.406;-4.518;2023-07-02T05:54:06;24.59;54.20
74087;SHT30;62445;48.406;-4.518;2023-07-02T05:56:32;24.56;54.18
74087;SHT30;62445;48.406;-4.518;2023-07-02T05:58:57;24.56;54.20
74087;SHT30;62445;48.406;-4.518;2023-07-02T06:01:23;24.57;54.18
74087;SHT30;62445;48.406;-4.518;2023-07-02T06:03:51;24.57;54.16
74087;SHT30;62445;48.406;-4.518;2023-07-02T06:06:17;24.59;54.24
74087;SHT30;62445;48.406;-4.518;2023-07-02T06:08:42;24.57;54.24
74087;SHT30;62445;48.406;-4.518;2023-07-02T06:11:09;24.56;54.28
74087;SHT30;62445;48.406;-4.518;2023-07-02T06:13:35;24.57;54.23
74087;SHT30;62445;48.406;-4.518;2023-07-02T06:16:00;24.56;54.20
74087;SHT30;62445;48.406;-4.518;2023-07-02T06:18:26;24.55;54.26
74087;SHT30;62445;48.406;-4.518;2023-07-02T06:20:51;24.53;54.27
74087;SHT30;62445;48.406;-4.518;2023-07-02T06:23:17;24.57;54.50
74087;SHT30;62445;48.406;-4.518;2023-07-02T06:25:42;24.57;54.44
74087;SHT30;62445;48.406;-4.518;2023-07-02T06:28:09;24.60;54.47
74087;SHT30;62445;48.406;-4.518;2023-07-02T06:30:34;24.62;54.38
74087;SHT30;62445;48.406;-4.518;2023-07-02T06:32:59;24.60;54.25
74087;SHT30;62445;48.406;-4.518;2023-07-02T06:35:25;24.65;54.19
74087;SHT30;62445;48.406;-4.518;2023-07-02T06:37:50;24.60;54.12
74087;SHT30;62445;48.406;-4.518;2023-07-02T06:40:16;24.63;54.06
74087;SHT30;62445;48.406;-4.518;2023-07-02T06:42:41;24.69;54.03
74087;SHT30;62445;48.406;-4.518;2023-07-02T06:45:07;24.69;54.00
74087;SHT30;62445;48.406;-4.518;2023-07-02T06:47:33;24.67;53.91
74087;SHT30;62445;48.406;-4.518;2023-07-02T06:49:58;24.72;53.92
74087;SHT30;62445;48.406;-4.518;2023-07-02T06:52:24;24.72;53.88
74087;SHT30;62445;48.406;-4.518;2023-07-02T06:54:50;24.70;53.86
74087;SHT30;62445;48.406;-4.518;2023-07-02T06:57:16;24.73;53.80
74087;SHT30;62445;48.406;-4.518;2023-07-02T06:59:41;24.73;53.75
74087;SHT30;62445;48.406;-4.518;2023-07-02T07:02:07;24.76;53.71
74087;SHT30;62445;48.406;-4.518;2023-07-02T07:04:32;24.76;53.62
74087;SHT30;62445;48.406;-4.518;2023-07-02T07:07:00;24.79;53.57
74087;SHT30;62445;48.406;-4.518;2023-07-02T07:09:25;24.77;53.51
74087;SHT30;62445;48.406;-4.518;2023-07-02T07:11:50;24.79;53.53
74087;SHT30;62445;48.406;-4.518;2023-07-02T07:14:16;24.79;53.43
74087;SHT30;62445;48.406;-4.518;2023-07-02T07:16:41;24.80;53.43
74087;SHT30;62445;48.406;-4.518;2023-07-02T07:19:07;24.80;53.30
74087;SHT30;62445;48.406;-4.518;2023-07-02T07:21:34;24.83;53.32
74087;SHT30;62445;48.406;-4.518;2023-07-02T07:23:59;24.83;53.31
74087;SHT30;62445;48.406;-4.518;2023-07-02T07:26:24;24.82;53.25
74087;SHT30;62445;48.406;-4.518;2023-07-02T07:28:50;24.83;53.24
74087;SHT30;62445;48.406;-4.518;2023-07-02T07:31:15;24.86;53.23
74087;SHT30;62445;48.406;-4.518;2023-07-02T07:33:41;24.84;53.14
74087;SHT30;62445;48.406;-4.518;2023-07-02T07:36:06;24.84;53.16
74087;SHT30;62445;48.406;-4.518;2023-07-02T07:38:32;24.84;53.14
74087;SHT30;62445;48.406;-4.518;2023-07-02T07:40:57;24.84;53.08
74087;SHT30;62445;48.406;-4.518;2023-07-02T07:43:22;24.86;53.08
74087;SHT30;62445;48.406;-4.518;2023-07-02T07:45:48;24.84;53.02
74087;SHT30;62445;48.406;-4.518;2023-07-02T07:48:15;24.87;52.97
74087;SHT30;62445;48.406;-4.518;2023-07-02T07:50:40;24.86;53.01
74087;SHT30;62445;48.406;-4.518;2023-07-02T07:53:05;24.84;52.99
74087;SHT30;62445;48.406;-4.518;2023-07-02T07:55:31;24.84;53.00
74087;SHT30;62445;48.406;-4.518;2023-07-02T07:57:56;24.82;52.94
74087;SHT30;62445;48.406;-4.518;2023-07-02T08:00:22;24.83;52.88
74087;SHT30;62445;48.406;-4.518;2023-07-02T08:02:49;24.82;52.88
74087;SHT30;62445;48.406;-4.518;2023-07-02T08:05:16;24.84;52.92
74087;SHT30;62445;48.406;-4.518;2023-07-02T08:07:41;24.83;52.89
74087;SHT30;62445;48.406;-4.518;2023-07-02T08:10:07;24.82;52.82
74087;SHT30;62445;48.406;-4.518;2023-07-02T08:12:35;24.83;52.85
74087;SHT30;62445;48.406;-4.518;2023-07-02T08:15:00;24.82;53.17
74087;SHT30;62445;48.406;-4.518;2023-07-02T08:17:26;24.82;53.18
74087;SHT30;62445;48.406;-4.518;2023-07-02T08:19:51;24.83;53.20
74087;SHT30;62445;48.406;-4.518;2023-07-02T08:22:17;24.82;53.13
74087;SHT30;62445;48.406;-4.518;2023-07-02T08:24:43;24.83;53.06
74087;SHT30;62445;48.406;-4.518;2023-07-02T08:27:08;24.83;53.02
74087;SHT30;62445;48.406;-4.518;2023-07-02T08:29:35;24.84;53.05
74087;SHT30;62445;48.406;-4.518;2023-07-02T08:32:00;24.82;53.02
74087;SHT30;62445;48.406;-4.518;2023-07-02T08:34:26;24.83;52.97
74087;SHT30;62445;48.406;-4.518;2023-07-02T08:36:51;24.82;53.00
74087;SHT30;62445;48.406;-4.518;2023-07-02T08:39:17;24.86;53.01
74087;SHT30;62445;48.406;-4.518;2023-07-02T08:41:46;24.80;52.98
74087;SHT30;62445;48.406;-4.518;2023-07-02T08:44:13;24.82;52.92
74087;SHT30;62445;48.406;-4.518;2023-07-02T08:46:39;24.82;52.84
74087;SHT30;62445;48.406;-4.518;2023-07-02T08:49:06;24.83;52.85
74087;SHT30;62445;48.406;-4.518;2023-07-02T08:51:31;24.84;52.86
74087;SHT30;62445;48.406;-4.518;2023-07-02T08:53:57;24.83;52.85
74087;SHT30;62445;48.406;-4.518;2023-07-02T08:56:22;24.84;52.81
74087;SHT30;62445;48.406;-4.518;2023-07-02T08:58:48;24.84;52.72
74087;SHT30;62445;48.406;-4.518;2023-07-02T09:01:14;24.86;52.75
74087;SHT30;62445;48.406;-4.518;2023-07-02T09:03:40;24.87;52.71
74087;SHT30;62445;48.406;-4.518;2023-07-02T09:06:11;24.87;52.68
74087;SHT30;62445;48.406;-4.518;2023-07-02T09:08:37;24.88;52.67
74087;SHT30;62445;48.406;-4.518;2023-07-02T09:11:10;24.93;52.68
74087;SHT30;62445;48.406;-4.518;2023-07-02T09:14:02;24.94;52.62
74087;SHT30;62445;48.406;-4.518;2023-07-02T09:16:32;24.93;52.48
74087;SHT30;62445;48.406;-4.518;2023-07-02T09:19:03;24.91;52.47
74087;SHT30;62445;48.406;-4.518;2023-07-02T09:21:43;24.93;52.53
74087;SHT30;62445;48.406;-4.518;2023-07-02T09:24:24;24.93;52.43
74087;SHT30;62445;48.406;-4.518;2023-07-02T09:26:51;24.94;52.39
74087;SHT30;62445;48.406;-4.518;2023-07-02T09:29:24;24.97;52.37
74087;SHT30;62445;48.406;-4.518;2023-07-02T09:31:52;24.97;52.17
74087;SHT30;62445;48.406;-4.518;2023-07-02T09:34:17;24.98;52.20
74087;SHT30;62445;48.406;-4.518;2023-07-02T09:36:43;24.97;52.16
74087;SHT30;62445;48.406;-4.518;2023-07-02T09:39:14;24.95;52.19
74087;SHT30;62445;48.406;-4.518;2023-07-02T09:41:41;24.93;52.24
74087;SHT30;62445;48.406;-4.518;2023-07-02T09:44:09;24.90;52.18
74087;SHT30;62445;48.406;-4.518;2023-07-02T09:46:37;24.88;52.29
74087;SHT30;62445;48.406;-4.518;2023-07-02T09:49:05;24.86;52.28
74087;SHT30;62445;48.406;-4.518;2023-07-02T09:51:32;24.86;52.36
74087;SHT30;62445;48.406;-4.518;2023-07-02T09:53:57;24.86;52.35
74087;SHT30;62445;48.406;-4.518;2023-07-02T09:56:23;24.84;52.35
74087;SHT30;62445;48.406;-4.518;2023-07-02T09:58:49;24.84;52.42
74087;SHT30;62445;48.406;-4.518;2023-07-02T10:01:14;24.83;52.51
74087;SHT30;62445;48.406;-4.518;2023-07-02T10:03:40;24.86;52.54
74087;SHT30;62445;48.406;-4.518;2023-07-02T10:06:06;24.80;52.58
74087;SHT30;62445;48.406;-4.518;2023-07-02T10:08:32;24.80;52.57
74087;SHT30;62445;48.406;-4.518;2023-07-02T10:11:11;24.80;52.63
74087;SHT30;62445;48.406;-4.518;2023-07-02T10:13:38;24.83;52.51
74087;SHT30;62445;48.406;-4.518;2023-07-02T10:16:05;24.87;52.57
74087;SHT30;62445;48.406;-4.518;2023-07-02T10:18:30;24.88;52.52
74087;SHT30;62445;48.406;-4.518;2023-07-02T10:20:56;24.93;52.45
74087;SHT30;62445;48.406;-4.518;2023-07-02T10:23:35;24.97;52.43
74087;SHT30;62445;48.406;-4.518;2023-07-02T10:26:29;25.03;52.38
74087;SHT30;62445;48.406;-4.518;2023-07-02T10:28:56;25.06;52.26
74087;SHT30;62445;48.406;-4.518;2023-07-02T10:31:22;25.06;52.33
74087;SHT30;62445;48.406;-4.518;2023-07-02T10:33:47;25.08;52.27
74087;SHT30;62445;48.406;-4.518;2023-07-02T10:36:23;25.08;52.31
74087;SHT30;62445;48.406;-4.518;2023-07-02T10:38:49;25.13;52.37
74087;SHT30;62445;48.406;-4.518;2023-07-02T10:41:26;25.17;52.30
74087;SHT30;62445;48.406;-4.518;2023-07-02T10:43:52;25.17;52.21
74087;SHT30;62445;48.406;-4.518;2023-07-02T10:46:22;25.20;52.25
74087;SHT30;62445;48.406;-4.518;2023-07-02T10:48:51;25.21;52.21
74087;SHT30;62445;48.406;-4.518;2023-07-02T10:51:17;25.17;52.28
74087;SHT30;62445;48.406;-4.518;2023-07-02T10:53:42;25.17;52.28
74087;SHT30;62445;48.406;-4.518;2023-07-02T10:56:16;25.17;52.32
74087;SHT30;62445;48.406;-4.518;2023-07-02T10:58:42;25.18;52.27
74087;SHT30;62445;48.406;-4.518;2023-07-02T11:01:08;25.20;52.34
74087;SHT30;62445;48.406;-4.518;2023-07-02T11:03:34;25.20;52.33
74087;SHT30;62445;48.406;-4.518;2023-07-02T11:05:59;25.22;52.34
74087;SHT30;62445;48.406;-4.518;2023-07-02T11:08:34;25.25;52.34
74087;SHT30;62445;48.406;-4.518;2023-07-02T11:11:07;25.25;52.32
74087;SHT30;62445;48.406;-4.518;2023-07-02T11:13:33;25.28;52.29
74087;SHT30;62445;48.406;-4.518;2023-07-02T11:15:58;25.28;52.37
74087;SHT30;62445;48.406;-4.518;2023-07-02T11:18:24;25.25;52.29
74087;SHT30;62445;48.406;-4.518;2023-07-02T11:20:49;25.27;52.31
74087;SHT30;62445;48.406;-4.518;2023-07-02T11:23:21;25.28;52.36
74087;SHT30;62445;48.406;-4.518;2023-07-02T11:25:59;25.27;52.38
74087;SHT30;62445;48.406;-4.518;2023-07-02T11:28:26;25.25;52.42
74087;SHT30;62445;48.406;-4.518;2023-07-02T11:30:52;25.27;52.42
74087;SHT30;62445;48.406;-4.518;2023-07-02T11:33:18;25.27;52.40
74087;SHT30;62445;48.406;-4.518;2023-07-02T11:35:43;25.27;52.43
74087;SHT30;62445;48.406;-4.518;2023-07-02T11:38:09;25.24;52.46
74087;SHT30;62445;48.406;-4.518;2023-07-02T11:40:38;25.21;52.51
74087;SHT30;62445;48.406;-4.518;2023-07-02T11:43:03;25.22;52.52
74087;SHT30;62445;48.406;-4.518;2023-07-02T11:45:31;25.24;52.53
74087;SHT30;62445;48.406;-4.518;2023-07-02T11:47:56;25.27;52.47
74087;SHT30;62445;48.406;-4.518;2023-07-02T11:50:21;25.28;52.44
74087;SHT30;62445;48.406;-4.518;2023-07-02T11:52:47;25.28;52.42
74087;SHT30;62445;48.406;-4.518;2023-07-02T11:55:12;25.30;52.42
74087;SHT30;62445;48.406;-4.518;2023-07-02T11:57:38;25.32;52.36
74087;SHT30;62445;48.406;-4.518;2023-07-02T12:00:04;25.32;52.34
74087;SHT30;62445;48.406;-4.518;2023-07-02T12:02:29;25.35;52.38
74087;SHT30;62445;48.406;-4.518;2023-07-02T12:04:55;25.32;52.35
74087;SHT30;62445;48.406;-4.518;2023-07-02T12:07:20;25.31;52.36
74087;SHT30;62445;48.406;-4.518;2023-07-02T12:09:45;25.31;52.33
74087;SHT30;62445;48.406;-4.518;2023-07-02T12:12:11;25.31;52.44
74087;SHT30;62445;48.406;-4.518;2023-07-02T12:14:36;25.31;52.42
74087;SHT30;62445;48.406;-4.518;2023-07-02T12:17:03;25.31;52.43
74087;SHT30;62445;48.406;-4.518;2023-07-02T12:19:29;25.30;52.38
74087;SHT30;62445;48.406;-4.518;2023-07-02T12:21:54;25.30;52.42
74087;SHT30;62445;48.406;-4.518;2023-07-02T12:24:20;25.30;52.43
74087;SHT30;62445;48.406;-4.518;2023-07-02T12:26:45;25.31;52.43
74087;SHT30;62445;48.406;-4.518;2023-07-02T12:29:11;25.32;52.44
74087;SHT30;62445;48.406;-4.518;2023-07-02T12:31:36;25.34;52.38
74087;SHT30;62445;48.406;-4.518;2023-07-02T12:34:02;25.34;52.41
74087;SHT30;62445;48.406;-4.518;2023-07-02T12:36:28;25.34;52.42
74087;SHT30;62445;48.406;-4.518;2023-07-02T12:38:53;25.31;52.45
74087;SHT30;62445;48.406;-4.518;2023-07-02T12:41:19;25.30;52.48
74087;SHT30;62445;48.406;-4.518;2023-07-02T12:43:44;25.28;52.52
74087;SHT30;62445;48.406;-4.518;2023-07-02T12:46:09;25.25;52.57
74087;SHT30;62445;48.406;-4.518;2023-07-02T12:48:35;25.24;52.63
74087;SHT30;62445;48.406;-4.518;2023-07-02T12:51:00;25.21;52.68
74087;SHT30;62445;48.406;-4.518;2023-07-02T12:53:27;25.17;52.75
74087;SHT30;62445;48.406;-4.518;2023-07-02T12:55:53;25.20;52.78
74087;SHT30;62445;48.406;-4.518;2023-07-02T12:58:18;25.17;52.80
74087;SHT30;62445;48.406;-4.518;2023-07-02T13:00:44;25.20;52.79
74087;SHT30;62445;48.406;-4.518;2023-07-02T13:03:12;25.24;52.80
74087;SHT30;62445;48.406;-4.518;2023-07-02T13:05:37;25.25;52.75
74087;SHT30;62445;48.406;-4.518;2023-07-02T13:08:03;25.27;52.73
74087;SHT30;62445;48.406;-4.518;2023-07-02T13:10:29;25.27;52.73
74087;SHT30;62445;48.406;-4.518;2023-07-02T13:12:55;25.28;52.75
74087;SHT30;62445;48.406;-4.518;2023-07-02T13:15:21;25.27;52.78
74087;SHT30;62445;48.406;-4.518;2023-07-02T13:17:46;25.24;52.81
74087;SHT30;62445;48.406;-4.518;2023-07-02T13:20:12;25.20;52.90
74087;SHT30;62445;48.406;-4.518;2023-07-02T13:22:38;25.21;52.96
74087;SHT30;62445;48.406;-4.518;2023-07-02T13:25:04;25.17;53.02
74087;SHT30;62445;48.406;-4.518;2023-07-02T13:27:29;25.14;53.06
74087;SHT30;62445;48.406;-4.518;2023-07-02T13:29:55;25.13;53.17
74087;SHT30;62445;48.406;-4.518;2023-07-02T13:32:20;25.14;53.18
74087;SHT30;62445;48.406;-4.518;2023-07-02T13:34:46;25.11;53.21
74087;SHT30;62445;48.406;-4.518;2023-07-02T13:37:11;25.14;53.22
74087;SHT30;62445;48.406;-4.518;2023-07-02T13:39:36;25.13;53.21
74087;SHT30;62445;48.406;-4.518;2023-07-02T13:42:02;25.11;53.30
74087;SHT30;62445;48.406;-4.518;2023-07-02T13:44:27;25.08;53.32
74087;SHT30;62445;48.406;-4.518;2023-07-02T13:46:53;25.10;53.37
74087;SHT30;62445;48.406;-4.518;2023-07-02T13:49:18;25.10;53.41
74087;SHT30;62445;48.406;-4.518;2023-07-02T13:51:44;25.07;53.47
74087;SHT30;62445;48.406;-4.518;2023-07-02T13:54:12;25.10;53.46
74087;SHT30;62445;48.406;-4.518;2023-07-02T13:56:39;25.08;53.50
74087;SHT30;62445;48.406;-4.518;2023-07-02T13:59:05;25.07;53.56
74087;SHT30;62445;48.406;-4.518;2023-07-02T14:01:31;25.02;53.63
74087;SHT30;62445;48.406;-4.518;2023-07-02T14:03:58;25.02;53.70
74087;SHT30;62445;48.406;-4.518;2023-07-02T14:06:23;24.97;53.81
74087;SHT30;62445;48.406;-4.518;2023-07-02T14:08:48;24.95;53.81
74087;SHT30;62445;48.406;-4.518;2023-07-02T14:11:14;24.94;53.81
74087;SHT30;62445;48.406;-4.518;2023-07-02T14:13:40;24.91;53.93
74087;SHT30;62445;48.406;-4.518;2023-07-02T14:16:05;24.87;53.94
74087;SHT30;62445;48.406;-4.518;2023-07-02T14:18:30;24.86;54.06
74087;SHT30;62445;48.406;-4.518;2023-07-02T14:20:56;24.90;54.11
74087;SHT30;62445;48.406;-4.518;2023-07-02T14:23:21;24.90;54.09
74087;SHT30;62445;48.406;-4.518;2023-07-02T14:25:47;24.95;54.12
74087;SHT30;62445;48.406;-4.518;2023-07-02T14:28:12;24.93;54.23
74087;SHT30;62445;48.406;-4.518;2023-07-02T14:30:38;24.88;54.24
74087;SHT30;62445;48.406;-4.518;2023-07-02T14:33:03;24.93;54.20
74087;SHT30;62445;48.406;-4.518;2023-07-02T14:35:29;24.94;54.24
74087;SHT30;62445;48.406;-4.518;2023-07-02T14:37:56;24.88;54.32
74087;SHT30;62445;48.406;-4.518;2023-07-02T14:40:22;24.87;54.33
74087;SHT30;62445;48.406;-4.518;2023-07-02T14:42:47;24.87;54.38
74087;SHT30;62445;48.406;-4.518;2023-07-02T14:45:13;24.87;54.33
74087;SHT30;62445;48.406;-4.518;2023-07-02T14:47:38;24.88;54.37
74087;SHT30;62445;48.406;-4.518;2023-07-02T14:50:05;24.93;54.33
74087;SHT30;62445;48.406;-4.518;2023-07-02T14:52:30;24.95;54.34
74087;SHT30;62445;48.406;-4.518;2023-07-02T14:54:55;25.03;54.18
74087;SHT30;62445;48.406;-4.518;2023-07-02T14:57:21;25.10;54.02
74087;SHT30;62445;48.406;-4.518;2023-07-02T14:59:47;25.10;54.03
74087;SHT30;62445;48.406;-4.518;2023-07-02T15:02:15;25.10;54.06
74087;SHT30;62445;48.406;-4.518;2023-07-02T15:04:41;25.08;54.11
74087;SHT30;62445;48.406;-4.518;2023-07-02T15:07:07;25.07;54.16
74087;SHT30;62445;48.406;-4.518;2023-07-02T15:09:32;25.06;54.16
74087;SHT30;62445;48.406;-4.518;2023-07-02T15:11:58;25.04;54.18